createdAt,value
2022-11-28T05:04:52.979Z,60.52
2022-11-28T05:08:55.882Z,61.10
2022-11-28T05:12:58.484Z,59.39
2022-11-28T05:17:01.115Z,59.67
2022-11-28T05:21:08.069Z,59.46
2022-11-28T05:25:10.987Z,58.54
2022-11-28T05:29:13.542Z,59.40
2022-11-28T05:33:16.151Z,60.43
2022-11-28T05:37:20.088Z,58.92
2022-11-28T05:41:25.054Z,58.62
2022-11-28T05:45:27.729Z,58.30
2022-11-28T05:49:30.326Z,58.34
2022-11-28T05:53:34.469Z,58.98
2022-11-28T05:57:37.037Z,59.50
2022-11-28T06:01:39.743Z,60.12
2022-11-28T06:05:44.062Z,60.12
2022-11-28T06:09:48.370Z,60.86
2022-11-28T06:13:51.725Z,62.04
2022-11-28T06:17:54.640Z,62.12
2022-11-28T06:21:57.415Z,61.31
2022-11-28T06:26:06.249Z,60.88
2022-11-28T06:30:09.545Z,60.57
2022-11-28T06:34:12.692Z,61.30
2022-11-28T06:38:15.402Z,61.49
2022-11-28T06:42:19.911Z,61.64
2022-11-28T06:46:23.801Z,61.46
2022-11-28T06:50:26.544Z,61.82
2022-11-28T06:54:29.465Z,61.54
2022-11-28T06:58:33.616Z,62.05
2022-11-28T07:02:36.286Z,62.74
2022-11-28T07:06:39.198Z,62.32
2022-11-28T07:10:41.802Z,62.48
2022-11-28T07:14:45.788Z,62.34
2022-11-28T07:18:48.475Z,63.17
2022-11-28T07:22:51.171Z,63.15
2022-11-28T07:26:53.821Z,63.22
2022-11-28T07:31:03.009Z,62.67
2022-11-28T07:35:08.098Z,62.40
2022-11-28T07:39:14.442Z,62.67
2022-11-28T07:43:17.042Z,62.06
2022-11-28T07:47:21.841Z,62.36
2022-11-28T07:51:27.205Z,64.44
2022-11-28T07:55:29.884Z,64.68
2022-11-28T07:59:32.470Z,65.25
2022-11-28T08:03:36.670Z,65.23
2022-11-28T08:07:39.553Z,65.51
2022-11-28T08:11:42.960Z,65.40
2022-11-28T08:15:46.353Z,65.42
2022-11-28T08:19:50.287Z,65.18
2022-11-28T08:23:54.254Z,64.74
2022-11-28T08:27:56.886Z,63.85
2022-11-28T08:31:59.489Z,63.40
2022-11-28T08:36:04.683Z,63.71
2022-11-28T08:40:08.607Z,62.93
2022-11-28T08:44:11.252Z,62.56
2022-11-28T08:48:13.879Z,61.85
2022-11-28T08:52:17.812Z,61.67
2022-11-28T08:56:20.589Z,62.00
2022-11-28T09:00:23.292Z,61.82
2022-11-28T09:04:25.916Z,62.18
2022-11-28T09:08:29.867Z,61.95
2022-11-28T09:12:32.438Z,61.80
2022-11-28T09:16:35.096Z,61.09
2022-11-28T09:20:37.756Z,60.73
2022-11-28T09:24:41.784Z,60.64
2022-11-28T09:28:45.165Z,60.01
2022-11-28T09:32:49.304Z,60.74
2022-11-28T09:36:51.865Z,60.59
2022-11-28T09:40:55.828Z,60.22
2022-11-28T09:45:02.981Z,60.36
2022-11-28T09:49:20.227Z,59.32
2022-11-28T09:53:27.955Z,58.61
2022-11-28T09:57:35.812Z,58.76
2022-11-28T10:01:46.523Z,58.31
2022-11-28T10:05:54.693Z,58.01
2022-11-28T10:10:03.958Z,58.45
2022-11-28T10:14:31.205Z,57.62
2022-11-28T10:18:41.075Z,58.01
2022-11-28T10:22:47.310Z,58.11
2022-11-28T10:26:52.914Z,59.22
2022-11-28T10:31:02.491Z,58.02
2022-11-28T10:35:07.990Z,58.54
2022-11-28T10:39:13.052Z,59.07
2022-11-28T10:43:27.977Z,60.40
2022-11-28T10:48:29.617Z,60.16
2022-11-28T10:52:35.094Z,57.55
2022-11-28T10:56:47.350Z,58.46
2022-11-28T11:00:54.401Z,56.52
2022-11-28T11:04:58.763Z,57.33
2022-11-28T11:09:01.418Z,55.76
2022-11-28T11:13:14.162Z,55.54
2022-11-28T11:17:32.759Z,56.88
2022-11-28T11:21:39.783Z,56.33
2022-11-28T11:25:49.269Z,56.02
2022-11-28T11:29:52.954Z,55.06
2022-11-28T11:34:04.223Z,54.67
2022-11-28T11:38:26.246Z,55.20
2022-11-28T11:42:30.374Z,55.19
2022-11-28T11:46:33.047Z,54.48
2022-11-28T11:50:36.745Z,55.52
2022-11-28T11:54:41.613Z,55.85
2022-11-28T11:58:48.476Z,56.12
2022-11-28T12:02:55.821Z,56.55
2022-11-28T12:07:01.493Z,56.29
2022-11-28T12:11:14.833Z,56.50
2022-11-28T12:15:22.407Z,56.33
2022-11-28T12:19:31.991Z,56.93
2022-11-28T12:23:44.529Z,57.06
2022-11-28T12:28:04.711Z,56.75
2022-11-28T12:32:23.600Z,56.88
2022-11-28T12:36:34.937Z,56.97
2022-11-28T12:40:49.194Z,57.11
2022-11-28T12:45:08.448Z,57.02
2022-11-28T12:49:17.887Z,57.09
2022-11-28T12:53:41.579Z,57.59
2022-11-28T12:57:54.081Z,57.77
2022-11-28T13:02:11.416Z,56.86
2022-11-28T13:06:25.648Z,57.61
2022-11-28T13:10:36.760Z,57.58
2022-11-28T13:14:50.923Z,57.69
2022-11-28T13:18:59.616Z,57.91
2022-11-28T13:23:13.871Z,58.72
2022-11-28T13:27:24.691Z,58.05
2022-11-28T13:31:33.937Z,58.68
2022-11-28T13:35:41.016Z,59.00
2022-11-28T13:39:49.273Z,59.07
2022-11-28T13:43:57.302Z,59.13
2022-11-28T13:48:00.872Z,59.73
2022-11-28T13:52:42.252Z,59.26
2022-11-28T13:56:46.486Z,59.52
2022-11-28T14:01:04.161Z,59.56
2022-11-28T14:05:26.368Z,60.04
2022-11-28T14:09:44.904Z,59.99
2022-11-28T14:14:00.975Z,59.39
2022-11-28T14:18:55.016Z,59.31
2022-11-28T14:23:00.846Z,59.33
2022-11-28T14:27:07.005Z,59.71
2022-11-28T14:31:25.343Z,59.89
2022-11-28T14:36:07.380Z,60.36
2022-11-28T14:40:56.422Z,60.47
2022-11-28T14:45:07.886Z,60.54
2022-11-28T14:49:32.140Z,60.56
2022-11-28T14:53:44.483Z,60.17
2022-11-28T14:57:59.215Z,60.86
2022-11-28T15:02:19.780Z,61.22
2022-11-28T15:06:29.092Z,61.27
2022-11-28T15:10:40.044Z,61.23
2022-11-28T15:14:44.871Z,61.01
2022-11-28T15:18:51.674Z,61.12
2022-11-28T15:22:54.547Z,60.92
2022-11-28T15:26:59.249Z,60.95
2022-11-28T15:31:04.670Z,61.33
2022-11-28T15:35:14.631Z,60.71
2022-11-28T15:39:26.753Z,60.91
2022-11-28T15:43:31.538Z,61.51
2022-11-28T15:47:34.605Z,61.21
2022-11-28T15:51:38.541Z,61.27
2022-11-28T15:55:41.219Z,60.77
2022-11-28T15:59:44.398Z,60.82
2022-11-28T16:03:53.282Z,61.08
2022-11-28T16:07:57.298Z,60.98
2022-11-28T16:11:59.917Z,61.06
2022-11-28T16:16:04.066Z,61.46
2022-11-28T16:20:09.191Z,61.68
2022-11-28T16:24:25.117Z,62.22
2022-11-28T16:28:33.121Z,61.62
2022-11-28T16:32:38.903Z,61.41
2022-11-28T16:36:43.239Z,61.56
2022-11-28T16:40:47.389Z,61.76
2022-11-28T16:44:50.028Z,61.32
2022-11-28T16:48:56.896Z,61.25
2022-11-28T16:52:59.955Z,61.58
2022-11-28T16:57:12.103Z,61.42
2022-11-28T17:01:14.845Z,61.76
2022-11-28T17:05:18.557Z,62.31
2022-11-28T17:09:21.927Z,62.42
2022-11-28T17:13:30.384Z,63.01
2022-11-28T17:17:34.346Z,64.08
2022-11-28T17:21:40.773Z,63.94
2022-11-28T17:25:43.357Z,64.47
2022-11-28T17:29:47.317Z,64.47
2022-11-28T17:33:50.070Z,64.43
2022-11-28T17:37:52.712Z,64.04
2022-11-28T17:41:56.733Z,63.28
2022-11-28T17:46:00.754Z,63.72
2022-11-28T17:50:03.416Z,63.53
2022-11-28T17:54:08.656Z,63.54
2022-11-28T17:58:17.243Z,63.53
2022-11-28T18:02:21.194Z,63.55
2022-11-28T18:06:24.399Z,63.60
2022-11-28T18:10:27.111Z,63.52
2022-11-28T18:14:31.985Z,63.37
2022-11-28T18:18:40.328Z,63.21
2022-11-28T18:22:44.266Z,63.38
2022-11-28T18:26:46.894Z,63.91
2022-11-28T18:30:49.526Z,64.24
2022-11-28T18:34:53.546Z,63.88
2022-11-28T18:38:56.656Z,64.28
2022-11-28T18:43:00.159Z,63.74
2022-11-28T18:47:03.631Z,64.14
2022-11-28T18:51:12.853Z,64.23
2022-11-28T18:55:15.750Z,63.83
2022-11-28T18:59:18.512Z,64.16
2022-11-28T19:03:21.186Z,64.98
2022-11-28T19:07:25.703Z,65.01
2022-11-28T19:11:30.188Z,65.20
2022-11-28T19:15:33.071Z,65.14
2022-11-28T19:19:37.288Z,64.88
2022-11-28T19:23:41.666Z,64.66
2022-11-28T19:27:44.386Z,65.09
2022-11-28T19:31:47.208Z,65.21
2022-11-28T19:35:49.920Z,65.19
2022-11-28T19:39:56.436Z,65.62
2022-11-28T19:44:01.380Z,65.08
2022-11-28T19:48:05.477Z,65.36
2022-11-28T19:52:08.124Z,65.62
2022-11-28T19:56:14.950Z,65.16
2022-11-28T20:00:18.993Z,64.95
2022-11-28T20:04:23.456Z,65.02
2022-11-28T20:08:26.141Z,65.00
2022-11-28T20:12:30.231Z,64.42
2022-11-28T20:16:34.406Z,64.42
2022-11-28T20:20:37.224Z,64.20
2022-11-28T20:24:39.845Z,64.65
2022-11-28T20:28:44.399Z,64.62
2022-11-28T20:32:48.521Z,64.36
2022-11-28T20:36:53.040Z,64.17
2022-11-28T20:41:00.659Z,63.83
2022-11-28T20:45:05.503Z,64.49
2022-11-28T20:49:08.502Z,64.67
2022-11-28T20:53:11.120Z,64.67
2022-11-28T20:57:21.297Z,65.40
2022-11-28T21:01:27.216Z,65.37
2022-11-28T21:05:30.269Z,65.70
2022-11-28T21:09:32.928Z,66.00
2022-11-28T21:13:35.888Z,66.04
2022-11-28T21:17:40.249Z,65.77
2022-11-28T21:21:43.177Z,65.60
2022-11-28T21:25:45.833Z,65.32
2022-11-28T21:29:50.234Z,65.32
2022-11-28T21:33:55.928Z,64.95
2022-11-28T21:37:58.627Z,64.88
2022-11-28T21:42:02.309Z,65.17
2022-11-28T21:46:07.084Z,65.20
2022-11-28T21:50:12.298Z,65.52
2022-11-28T21:54:15.041Z,65.33
2022-11-28T21:58:25.133Z,65.13
